sensor_id;sensor_type;location;lat;lon;timestamp;P1;durP1;ratioP1;P2;durP2;ratioP2
39540;SDS011;25219;52.244;21.006;2023-01-30T00:00:52;29.98;;;15.40;;
39540;SDS011;25219;52.244;21.006;2023-01-30T00:03:18;29.90;;;15.88;;
39540;SDS011;25219;52.244;21.006;2023-01-30T00:05:43;29.27;;;15.40;;
39540;SDS011;25219;52.244;21.006;2023-01-30T00:08:09;26.58;;;14.75;;
39540;SDS011;25219;52.244;21.006;2023-01-30T00:10:34;31.77;;;14.80;;
39540;SDS011;25219;52.244;21.006;2023-01-30T00:12:59;28.30;;;14.00;;
39540;SDS011;25219;52.244;21.006;2023-01-30T00:15:25;28.90;;;14.18;;
39540;SDS011;25219;52.244;21.006;2023-01-30T00:17:50;24.05;;;12.68;;
39540;SDS011;25219;52.244;21.006;2023-01-30T00:20:18;27.33;;;14.00;;
39540;SDS011;25219;52.244;21.006;2023-01-30T00:22:43;26.30;;;13.85;;
39540;SDS011;25219;52.244;21.006;2023-01-30T00:25:08;27.00;;;14.00;;
39540;SDS011;25219;52.244;21.006;2023-01-30T00:27:37;23.60;;;13.15;;
39540;SDS011;25219;52.244;21.006;2023-01-30T00:30:02;28.60;;;14.00;;
39540;SDS011;25219;52.244;21.006;2023-01-30T00:32:30;28.00;;;13.15;;
39540;SDS011;25219;52.244;21.006;2023-01-30T00:34:55;25.98;;;13.98;;
39540;SDS011;25219;52.244;21.006;2023-01-30T00:37:20;23.60;;;14.25;;
39540;SDS011;25219;52.244;21.006;2023-01-30T00:39:46;26.75;;;13.10;;
39540;SDS011;25219;52.244;21.006;2023-01-30T00:42:11;23.83;;;13.40;;
39540;SDS011;25219;52.244;21.006;2023-01-30T00:44:55;23.00;;;12.98;;
39540;SDS011;25219;52.244;21.006;2023-01-30T00:47:39;24.10;;;13.20;;
39540;SDS011;25219;52.244;21.006;2023-01-30T00:50:11;23.92;;;13.20;;
39540;SDS011;25219;52.244;21.006;2023-01-30T00:52:36;27.05;;;13.35;;
39540;SDS011;25219;52.244;21.006;2023-01-30T00:55:04;28.35;;;13.80;;
39540;SDS011;25219;52.244;21.006;2023-01-30T00:57:29;24.17;;;12.30;;
39540;SDS011;25219;52.244;21.006;2023-01-30T00:59:56;25.38;;;12.85;;
39540;SDS011;25219;52.244;21.006;2023-01-30T01:02:22;22.65;;;11.50;;
39540;SDS011;25219;52.244;21.006;2023-01-30T01:04:47;23.17;;;12.70;;
39540;SDS011;25219;52.244;21.006;2023-01-30T01:07:13;25.98;;;13.30;;
39540;SDS011;25219;52.244;21.006;2023-01-30T01:09:38;22.15;;;12.77;;
39540;SDS011;25219;52.244;21.006;2023-01-30T01:12:04;25.35;;;13.35;;
39540;SDS011;25219;52.244;21.006;2023-01-30T01:14:31;25.13;;;13.25;;
39540;SDS011;25219;52.244;21.006;2023-01-30T01:16:56;21.08;;;12.45;;
39540;SDS011;25219;52.244;21.006;2023-01-30T01:19:22;23.38;;;12.93;;
39540;SDS011;25219;52.244;21.006;2023-01-30T01:21:47;24.77;;;13.10;;
39540;SDS011;25219;52.244;21.006;2023-01-30T01:24:13;26.77;;;13.65;;
39540;SDS011;25219;52.244;21.006;2023-01-30T01:26:38;23.13;;;12.38;;
39540;SDS011;25219;52.244;21.006;2023-01-30T01:29:07;20.27;;;11.15;;
39540;SDS011;25219;52.244;21.006;2023-01-30T01:31:36;20.27;;;11.10;;
39540;SDS011;25219;52.244;21.006;2023-01-30T01:34:01;21.73;;;11.27;;
39540;SDS011;25219;52.244;21.006;2023-01-30T01:36:27;19.05;;;10.85;;
39540;SDS011;25219;52.244;21.006;2023-01-30T01:38:52;17.33;;;9.90;;
39540;SDS011;25219;52.244;21.006;2023-01-30T01:41:17;18.10;;;10.88;;
39540;SDS011;25219;52.244;21.006;2023-01-30T01:43:59;21.75;;;11.57;;
39540;SDS011;25219;52.244;21.006;2023-01-30T01:46:30;18.77;;;10.00;;
39540;SDS011;25219;52.244;21.006;2023-01-30T01:48:57;16.10;;;9.48;;
39540;SDS011;25219;52.244;21.006;2023-01-30T01:53:58;16.27;;;8.65;;
39540;SDS011;25219;52.244;21.006;2023-01-30T01:56:25;14.97;;;8.90;;
39540;SDS011;25219;52.244;21.006;2023-01-30T01:58:52;16.83;;;8.77;;
39540;SDS011;25219;52.244;21.006;2023-01-30T02:01:19;20.13;;;9.02;;
39540;SDS011;25219;52.244;21.006;2023-01-30T02:03:46;16.77;;;8.52;;
39540;SDS011;25219;52.244;21.006;2023-01-30T02:06:13;15.85;;;8.07;;
39540;SDS011;25219;52.244;21.006;2023-01-30T02:08:40;17.33;;;9.20;;
39540;SDS011;25219;52.244;21.006;2023-01-30T02:11:09;17.42;;;8.75;;
39540;SDS011;25219;52.244;21.006;2023-01-30T02:13:36;17.15;;;9.25;;
39540;SDS011;25219;52.244;21.006;2023-01-30T02:16:02;14.68;;;8.65;;
39540;SDS011;25219;52.244;21.006;2023-01-30T02:18:28;16.08;;;9.32;;
39540;SDS011;25219;52.244;21.006;2023-01-30T02:32:09;15.95;;;8.18;;
39540;SDS011;25219;52.244;21.006;2023-01-30T02:35:15;15.15;;;8.10;;
39540;SDS011;25219;52.244;21.006;2023-01-30T02:45:23;20.73;;;9.60;;
39540;SDS011;25219;52.244;21.006;2023-01-30T02:50:20;17.98;;;9.73;;
39540;SDS011;25219;52.244;21.006;2023-01-30T02:52:47;20.75;;;9.68;;
39540;SDS011;25219;52.244;21.006;2023-01-30T02:55:19;20.70;;;10.98;;
39540;SDS011;25219;52.244;21.006;2023-01-30T02:57:47;20.52;;;10.23;;
39540;SDS011;25219;52.244;21.006;2023-01-30T03:00:16;18.98;;;10.13;;
39540;SDS011;25219;52.244;21.006;2023-01-30T03:02:48;18.55;;;10.30;;
39540;SDS011;25219;52.244;21.006;2023-01-30T03:08:18;20.42;;;10.02;;
39540;SDS011;25219;52.244;21.006;2023-01-30T03:10:51;17.55;;;9.43;;
39540;SDS011;25219;52.244;21.006;2023-01-30T03:13:19;18.33;;;9.45;;
39540;SDS011;25219;52.244;21.006;2023-01-30T03:18:15;20.00;;;9.65;;
39540;SDS011;25219;52.244;21.006;2023-01-30T03:20:40;17.58;;;8.70;;
39540;SDS011;25219;52.244;21.006;2023-01-30T03:23:06;17.98;;;8.98;;
39540;SDS011;25219;52.244;21.006;2023-01-30T03:25:31;16.50;;;8.88;;
39540;SDS011;25219;52.244;21.006;2023-01-30T03:27:57;14.82;;;9.15;;
39540;SDS011;25219;52.244;21.006;2023-01-30T03:30:26;19.35;;;10.20;;
39540;SDS011;25219;52.244;21.006;2023-01-30T03:32:51;18.63;;;9.07;;
39540;SDS011;25219;52.244;21.006;2023-01-30T03:35:16;18.40;;;9.35;;
39540;SDS011;25219;52.244;21.006;2023-01-30T03:37:42;17.35;;;8.88;;
39540;SDS011;25219;52.244;21.006;2023-01-30T03:40:08;18.83;;;9.02;;
39540;SDS011;25219;52.244;21.006;2023-01-30T03:42:33;25.77;;;9.55;;
39540;SDS011;25219;52.244;21.006;2023-01-30T03:44:59;17.67;;;9.05;;
39540;SDS011;25219;52.244;21.006;2023-01-30T03:47:24;14.82;;;8.45;;
39540;SDS011;25219;52.244;21.006;2023-01-30T03:49:49;15.77;;;9.20;;
39540;SDS011;25219;52.244;21.006;2023-01-30T03:52:15;20.38;;;9.68;;
39540;SDS011;25219;52.244;21.006;2023-01-30T03:54:40;19.17;;;9.02;;
39540;SDS011;25219;52.244;21.006;2023-01-30T03:57:05;20.38;;;10.02;;
39540;SDS011;25219;52.244;21.006;2023-01-30T03:59:30;17.50;;;9.57;;
39540;SDS011;25219;52.244;21.006;2023-01-30T04:01:56;18.73;;;9.90;;
39540;SDS011;25219;52.244;21.006;2023-01-30T04:04:22;17.92;;;9.57;;
39540;SDS011;25219;52.244;21.006;2023-01-30T04:06:47;22.77;;;9.85;;
39540;SDS011;25219;52.244;21.006;2023-01-30T04:09:12;17.08;;;9.55;;
39540;SDS011;25219;52.244;21.006;2023-01-30T04:11:37;21.38;;;10.50;;
39540;SDS011;25219;52.244;21.006;2023-01-30T04:14:03;19.73;;;9.98;;
39540;SDS011;25219;52.244;21.006;2023-01-30T04:16:28;22.88;;;10.90;;
39540;SDS011;25219;52.244;21.006;2023-01-30T04:18:54;21.60;;;10.57;;
39540;SDS011;25219;52.244;21.006;2023-01-30T04:21:19;20.25;;;10.40;;
39540;SDS011;25219;52.244;21.006;2023-01-30T04:23:45;18.52;;;9.85;;
39540;SDS011;25219;52.244;21.006;2023-01-30T04:26:10;26.20;;;11.25;;
39540;SDS011;25219;52.244;21.006;2023-01-30T04:28:36;16.20;;;9.45;;
39540;SDS011;25219;52.244;21.006;2023-01-30T04:31:04;19.77;;;10.13;;
39540;SDS011;25219;52.244;21.006;2023-01-30T04:33:29;19.27;;;10.32;;
39540;SDS011;25219;52.244;21.006;2023-01-30T04:35:59;20.80;;;10.80;;
39540;SDS011;25219;52.244;21.006;2023-01-30T04:38:25;16.70;;;8.70;;
39540;SDS011;25219;52.244;21.006;2023-01-30T04:40:52;21.52;;;10.43;;
39540;SDS011;25219;52.244;21.006;2023-01-30T04:43:18;20.60;;;10.40;;
39540;SDS011;25219;52.244;21.006;2023-01-30T04:45:44;18.58;;;9.10;;
39540;SDS011;25219;52.244;21.006;2023-01-30T04:48:10;18.85;;;9.52;;
39540;SDS011;25219;52.244;21.006;2023-01-30T04:50:35;20.83;;;9.85;;
39540;SDS011;25219;52.244;21.006;2023-01-30T04:53:00;18.13;;;9.45;;
39540;SDS011;25219;52.244;21.006;2023-01-30T04:55:26;17.98;;;9.07;;
39540;SDS011;25219;52.244;21.006;2023-01-30T04:57:51;15.13;;;7.82;;
39540;SDS011;25219;52.244;21.006;2023-01-30T05:00:17;16.92;;;8.52;;
39540;SDS011;25219;52.244;21.006;2023-01-30T05:02:42;15.43;;;8.00;;
39540;SDS011;25219;52.244;21.006;2023-01-30T05:05:07;18.83;;;8.60;;
39540;SDS011;25219;52.244;21.006;2023-01-30T05:07:33;15.63;;;8.15;;
39540;SDS011;25219;52.244;21.006;2023-01-30T05:09:58;17.98;;;8.18;;
39540;SDS011;25219;52.244;21.006;2023-01-30T05:12:23;16.42;;;8.18;;
39540;SDS011;25219;52.244;21.006;2023-01-30T05:14:49;13.90;;;7.80;;
39540;SDS011;25219;52.244;21.006;2023-01-30T05:17:14;16.77;;;7.93;;
39540;SDS011;25219;52.244;21.006;2023-01-30T05:19:42;21.33;;;7.70;;
39540;SDS011;25219;52.244;21.006;2023-01-30T05:22:07;18.50;;;7.60;;
39540;SDS011;25219;52.244;21.006;2023-01-30T05:24:32;12.63;;;7.60;;
39540;SDS011;25219;52.244;21.006;2023-01-30T05:26:58;15.57;;;7.43;;
39540;SDS011;25219;52.244;21.006;2023-01-30T05:29:23;16.70;;;7.90;;
39540;SDS011;25219;52.244;21.006;2023-01-30T05:31:48;14.80;;;7.85;;
39540;SDS011;25219;52.244;21.006;2023-01-30T05:34:14;13.18;;;7.13;;
39540;SDS011;25219;52.244;21.006;2023-01-30T05:36:39;15.40;;;7.07;;
39540;SDS011;25219;52.244;21.006;2023-01-30T05:39:04;15.95;;;7.82;;
39540;SDS011;25219;52.244;21.006;2023-01-30T05:41:30;15.98;;;7.95;;
39540;SDS011;25219;52.244;21.006;2023-01-30T05:43:55;15.90;;;7.70;;
39540;SDS011;25219;52.244;21.006;2023-01-30T05:46:20;17.70;;;7.50;;
39540;SDS011;25219;52.244;21.006;2023-01-30T05:48:46;15.10;;;8.27;;
39540;SDS011;25219;52.244;21.006;2023-01-30T05:51:18;15.25;;;7.75;;
39540;SDS011;25219;52.244;21.006;2023-01-30T05:53:44;15.00;;;7.60;;
39540;SDS011;25219;52.244;21.006;2023-01-30T05:56:09;15.20;;;7.07;;
39540;SDS011;25219;52.244;21.006;2023-01-30T05:58:35;16.10;;;8.35;;
39540;SDS011;25219;52.244;21.006;2023-01-30T06:01:00;13.45;;;7.50;;
39540;SDS011;25219;52.244;21.006;2023-01-30T06:03:26;14.30;;;7.07;;
39540;SDS011;25219;52.244;21.006;2023-01-30T06:05:51;14.48;;;7.47;;
39540;SDS011;25219;52.244;21.006;2023-01-30T06:08:16;16.02;;;7.65;;
39540;SDS011;25219;52.244;21.006;2023-01-30T06:10:42;14.55;;;7.50;;
39540;SDS011;25219;52.244;21.006;2023-01-30T06:13:07;15.15;;;8.13;;
39540;SDS011;25219;52.244;21.006;2023-01-30T06:15:35;14.98;;;7.63;;
39540;SDS011;25219;52.244;21.006;2023-01-30T06:18:00;16.75;;;7.28;;
39540;SDS011;25219;52.244;21.006;2023-01-30T06:20:25;16.20;;;7.88;;
39540;SDS011;25219;52.244;21.006;2023-01-30T06:22:51;15.77;;;8.52;;
39540;SDS011;25219;52.244;21.006;2023-01-30T06:25:16;16.35;;;8.25;;
39540;SDS011;25219;52.244;21.006;2023-01-30T06:27:41;17.00;;;8.43;;
39540;SDS011;25219;52.244;21.006;2023-01-30T06:30:07;15.13;;;7.63;;
39540;SDS011;25219;52.244;21.006;2023-01-30T06:32:33;14.38;;;8.13;;
39540;SDS011;25219;52.244;21.006;2023-01-30T06:34:58;19.45;;;8.00;;
39540;SDS011;25219;52.244;21.006;2023-01-30T06:37:23;16.88;;;7.57;;
39540;SDS011;25219;52.244;21.006;2023-01-30T06:39:49;16.73;;;8.55;;
39540;SDS011;25219;52.244;21.006;2023-01-30T06:42:14;18.08;;;8.95;;
39540;SDS011;25219;52.244;21.006;2023-01-30T06:44:39;18.02;;;8.23;;
39540;SDS011;25219;52.244;21.006;2023-01-30T06:47:05;18.23;;;9.50;;
39540;SDS011;25219;52.244;21.006;2023-01-30T06:49:30;16.77;;;9.18;;
39540;SDS011;25219;52.244;21.006;2023-01-30T06:51:55;16.55;;;8.57;;
39540;SDS011;25219;52.244;21.006;2023-01-30T06:54:21;17.20;;;8.55;;
39540;SDS011;25219;52.244;21.006;2023-01-30T06:56:46;13.65;;;8.57;;
39540;SDS011;25219;52.244;21.006;2023-01-30T06:59:11;18.60;;;8.90;;
39540;SDS011;25219;52.244;21.006;2023-01-30T07:01:36;16.05;;;8.32;;
39540;SDS011;25219;52.244;21.006;2023-01-30T07:04:02;15.70;;;8.65;;
39540;SDS011;25219;52.244;21.006;2023-01-30T07:06:28;18.90;;;9.32;;
39540;SDS011;25219;52.244;21.006;2023-01-30T07:08:53;21.38;;;9.98;;
39540;SDS011;25219;52.244;21.006;2023-01-30T07:11:21;18.98;;;8.45;;
39540;SDS011;25219;52.244;21.006;2023-01-30T07:13:46;16.13;;;8.52;;
39540;SDS011;25219;52.244;21.006;2023-01-30T07:16:11;16.65;;;9.13;;
39540;SDS011;25219;52.244;21.006;2023-01-30T07:18:37;17.75;;;8.65;;
39540;SDS011;25219;52.244;21.006;2023-01-30T07:21:02;16.20;;;8.48;;
39540;SDS011;25219;52.244;21.006;2023-01-30T07:23:27;15.85;;;8.57;;
39540;SDS011;25219;52.244;21.006;2023-01-30T07:25:53;18.02;;;8.88;;
39540;SDS011;25219;52.244;21.006;2023-01-30T07:28:19;18.92;;;9.32;;
39540;SDS011;25219;52.244;21.006;2023-01-30T07:30:44;17.80;;;8.77;;
39540;SDS011;25219;52.244;21.006;2023-01-30T07:33:10;19.80;;;9.43;;
39540;SDS011;25219;52.244;21.006;2023-01-30T07:35:36;18.00;;;9.48;;
39540;SDS011;25219;52.244;21.006;2023-01-30T07:38:02;19.17;;;9.30;;
39540;SDS011;25219;52.244;21.006;2023-01-30T07:40:27;17.95;;;9.93;;
39540;SDS011;25219;52.244;21.006;2023-01-30T07:42:56;19.05;;;9.93;;
39540;SDS011;25219;52.244;21.006;2023-01-30T07:45:22;17.15;;;9.18;;
39540;SDS011;25219;52.244;21.006;2023-01-30T07:47:47;15.90;;;8.80;;
39540;SDS011;25219;52.244;21.006;2023-01-30T07:50:13;20.05;;;10.23;;
39540;SDS011;25219;52.244;21.006;2023-01-30T07:52:38;19.25;;;10.35;;
39540;SDS011;25219;52.244;21.006;2023-01-30T07:55:03;21.70;;;10.93;;
39540;SDS011;25219;52.244;21.006;2023-01-30T07:57:29;21.20;;;10.70;;
39540;SDS011;25219;52.244;21.006;2023-01-30T07:59:54;19.27;;;10.27;;
39540;SDS011;25219;52.244;21.006;2023-01-30T08:02:20;20.15;;;10.30;;
39540;SDS011;25219;52.244;21.006;2023-01-30T08:04:45;21.67;;;10.95;;
39540;SDS011;25219;52.244;21.006;2023-01-30T08:07:10;21.15;;;11.13;;
39540;SDS011;25219;52.244;21.006;2023-01-30T08:09:36;21.45;;;11.05;;
39540;SDS011;25219;52.244;21.006;2023-01-30T08:12:01;21.77;;;10.93;;
39540;SDS011;25219;52.244;21.006;2023-01-30T08:14:27;21.20;;;11.52;;
39540;SDS011;25219;52.244;21.006;2023-01-30T08:16:55;24.70;;;11.27;;
39540;SDS011;25219;52.244;21.006;2023-01-30T08:19:20;23.98;;;11.93;;
39540;SDS011;25219;52.244;21.006;2023-01-30T08:21:45;22.02;;;12.18;;
39540;SDS011;25219;52.244;21.006;2023-01-30T08:24:11;23.95;;;12.00;;
39540;SDS011;25219;52.244;21.006;2023-01-30T08:26:36;22.05;;;12.05;;
39540;SDS011;25219;52.244;21.006;2023-01-30T08:29:01;21.42;;;11.77;;
39540;SDS011;25219;52.244;21.006;2023-01-30T08:31:27;24.67;;;12.73;;
39540;SDS011;25219;52.244;21.006;2023-01-30T08:33:52;22.80;;;11.95;;
39540;SDS011;25219;52.244;21.006;2023-01-30T08:36:18;28.50;;;13.55;;
39540;SDS011;25219;52.244;21.006;2023-01-30T08:38:43;23.85;;;12.65;;
39540;SDS011;25219;52.244;21.006;2023-01-30T08:41:08;25.98;;;13.43;;
39540;SDS011;25219;52.244;21.006;2023-01-30T08:43:34;27.10;;;13.32;;
39540;SDS011;25219;52.244;21.006;2023-01-30T08:45:59;27.60;;;13.07;;
39540;SDS011;25219;52.244;21.006;2023-01-30T08:48:25;27.08;;;13.65;;
39540;SDS011;25219;52.244;21.006;2023-01-30T08:50:51;29.45;;;13.23;;
39540;SDS011;25219;52.244;21.006;2023-01-30T08:53:17;27.02;;;12.77;;
39540;SDS011;25219;52.244;21.006;2023-01-30T08:55:43;26.73;;;13.35;;
39540;SDS011;25219;52.244;21.006;2023-01-30T08:58:08;27.95;;;13.32;;
39540;SDS011;25219;52.244;21.006;2023-01-30T09:00:33;26.50;;;13.77;;
39540;SDS011;25219;52.244;21.006;2023-01-30T09:03:00;26.63;;;14.57;;
39540;SDS011;25219;52.244;21.006;2023-01-30T09:05:26;32.83;;;15.00;;
39540;SDS011;25219;52.244;21.006;2023-01-30T09:07:53;28.55;;;14.25;;
39540;SDS011;25219;52.244;21.006;2023-01-30T09:10:19;30.83;;;15.00;;
39540;SDS011;25219;52.244;21.006;2023-01-30T09:12:46;32.72;;;14.73;;
39540;SDS011;25219;52.244;21.006;2023-01-30T09:15:12;28.65;;;14.38;;
39540;SDS011;25219;52.244;21.006;2023-01-30T09:21:03;28.13;;;14.35;;
39540;SDS011;25219;52.244;21.006;2023-01-30T09:23:28;30.33;;;14.77;;
39540;SDS011;25219;52.244;21.006;2023-01-30T09:26:11;27.92;;;13.60;;
39540;SDS011;25219;52.244;21.006;2023-01-30T09:28:42;31.92;;;14.07;;
39540;SDS011;25219;52.244;21.006;2023-01-30T09:50:06;29.42;;;13.45;;
39540;SDS011;25219;52.244;21.006;2023-01-30T09:57:38;24.02;;;12.43;;
39540;SDS011;25219;52.244;21.006;2023-01-30T10:05:10;29.25;;;12.95;;
39540;SDS011;25219;52.244;21.006;2023-01-30T10:07:39;26.55;;;13.93;;
39540;SDS011;25219;52.244;21.006;2023-01-30T10:18:16;32.30;;;14.18;;
39540;SDS011;25219;52.244;21.006;2023-01-30T10:21:08;29.08;;;13.57;;
39540;SDS011;25219;52.244;21.006;2023-01-30T10:26:11;25.67;;;13.35;;
39540;SDS011;25219;52.244;21.006;2023-01-30T10:28:38;26.27;;;13.25;;
39540;SDS011;25219;52.244;21.006;2023-01-30T10:31:12;23.23;;;12.65;;
39540;SDS011;25219;52.244;21.006;2023-01-30T10:33:49;24.23;;;13.23;;
39540;SDS011;25219;52.244;21.006;2023-01-30T10:36:24;25.13;;;12.32;;
39540;SDS011;25219;52.244;21.006;2023-01-30T10:38:54;28.75;;;13.35;;
39540;SDS011;25219;52.244;21.006;2023-01-30T10:41:34;27.50;;;13.02;;
39540;SDS011;25219;52.244;21.006;2023-01-30T10:49:12;28.02;;;12.63;;
39540;SDS011;25219;52.244;21.006;2023-01-30T11:04:25;26.67;;;13.85;;
39540;SDS011;25219;52.244;21.006;2023-01-30T11:06:54;23.98;;;12.82;;
39540;SDS011;25219;52.244;21.006;2023-01-30T11:09:20;24.02;;;12.27;;
39540;SDS011;25219;52.244;21.006;2023-01-30T11:11:50;22.02;;;12.25;;
39540;SDS011;25219;52.244;21.006;2023-01-30T11:14:16;21.75;;;12.30;;
39540;SDS011;25219;52.244;21.006;2023-01-30T11:16:46;22.05;;;11.27;;
39540;SDS011;25219;52.244;21.006;2023-01-30T11:19:12;22.40;;;11.30;;
39540;SDS011;25219;52.244;21.006;2023-01-30T11:21:38;20.13;;;11.18;;
39540;SDS011;25219;52.244;21.006;2023-01-30T11:24:17;22.27;;;11.50;;
39540;SDS011;25219;52.244;21.006;2023-01-30T11:26:43;17.30;;;10.30;;
39540;SDS011;25219;52.244;21.006;2023-01-30T11:32:11;21.55;;;10.25;;
39540;SDS011;25219;52.244;21.006;2023-01-30T11:34:38;24.25;;;9.63;;
39540;SDS011;25219;52.244;21.006;2023-01-30T11:37:14;18.58;;;9.70;;
39540;SDS011;25219;52.244;21.006;2023-01-30T11:39:46;20.38;;;9.98;;
39540;SDS011;25219;52.244;21.006;2023-01-30T11:42:12;17.77;;;9.30;;
39540;SDS011;25219;52.244;21.006;2023-01-30T11:44:39;18.95;;;10.15;;
39540;SDS011;25219;52.244;21.006;2023-01-30T11:47:08;15.32;;;9.10;;
39540;SDS011;25219;52.244;21.006;2023-01-30T11:49:41;15.55;;;8.55;;
39540;SDS011;25219;52.244;21.006;2023-01-30T11:52:07;17.25;;;8.95;;
39540;SDS011;25219;52.244;21.006;2023-01-30T11:54:36;18.13;;;8.70;;
39540;SDS011;25219;52.244;21.006;2023-01-30T11:57:04;13.05;;;7.88;;
39540;SDS011;25219;52.244;21.006;2023-01-30T11:59:34;14.05;;;7.82;;
39540;SDS011;25219;52.244;21.006;2023-01-30T12:02:04;14.35;;;8.35;;
39540;SDS011;25219;52.244;21.006;2023-01-30T12:04:36;13.40;;;8.43;;
39540;SDS011;25219;52.244;21.006;2023-01-30T12:07:07;11.68;;;7.13;;
39540;SDS011;25219;52.244;21.006;2023-01-30T12:09:34;20.20;;;8.88;;
39540;SDS011;25219;52.244;21.006;2023-01-30T12:12:01;13.82;;;8.15;;
39540;SDS011;25219;52.244;21.006;2023-01-30T12:17:45;12.82;;;7.88;;
39540;SDS011;25219;52.244;21.006;2023-01-30T12:34:03;15.68;;;8.80;;
39540;SDS011;25219;52.244;21.006;2023-01-30T12:54:14;15.38;;;9.05;;
39540;SDS011;25219;52.244;21.006;2023-01-30T13:12:03;18.38;;;8.57;;
39540;SDS011;25219;52.244;21.006;2023-01-30T13:22:19;15.85;;;9.23;;
39540;SDS011;25219;52.244;21.006;2023-01-30T13:27:14;21.00;;;10.85;;
39540;SDS011;25219;52.244;21.006;2023-01-30T13:29:40;20.40;;;10.38;;
39540;SDS011;25219;52.244;21.006;2023-01-30T13:32:10;21.70;;;10.98;;
39540;SDS011;25219;52.244;21.006;2023-01-30T13:34:40;17.13;;;10.27;;
39540;SDS011;25219;52.244;21.006;2023-01-30T13:37:12;18.23;;;10.02;;
39540;SDS011;25219;52.244;21.006;2023-01-30T13:42:04;18.83;;;9.98;;
39540;SDS011;25219;52.244;21.006;2023-01-30T13:44:31;20.02;;;11.50;;
39540;SDS011;25219;52.244;21.006;2023-01-30T13:47:02;22.10;;;10.95;;
39540;SDS011;25219;52.244;21.006;2023-01-30T13:49:38;24.95;;;12.48;;
39540;SDS011;25219;52.244;21.006;2023-01-30T13:52:09;20.00;;;10.80;;
39540;SDS011;25219;52.244;21.006;2023-01-30T13:58:09;23.15;;;11.30;;
39540;SDS011;25219;52.244;21.006;2023-01-30T14:08:26;22.70;;;12.15;;
39540;SDS011;25219;52.244;21.006;2023-01-30T14:10:52;25.52;;;11.43;;
39540;SDS011;25219;52.244;21.006;2023-01-30T14:13:19;26.15;;;12.98;;
39540;SDS011;25219;52.244;21.006;2023-01-30T14:15:55;20.25;;;12.10;;
39540;SDS011;25219;52.244;21.006;2023-01-30T14:18:22;21.20;;;12.10;;
39540;SDS011;25219;52.244;21.006;2023-01-30T14:20:48;22.75;;;12.60;;
39540;SDS011;25219;52.244;21.006;2023-01-30T14:25:47;21.98;;;11.93;;
39540;SDS011;25219;52.244;21.006;2023-01-30T14:35:43;19.52;;;12.05;;
39540;SDS011;25219;52.244;21.006;2023-01-30T14:40:36;18.63;;;10.98;;
39540;SDS011;25219;52.244;21.006;2023-01-30T14:45:49;21.67;;;12.18;;
39540;SDS011;25219;52.244;21.006;2023-01-30T14:48:28;18.80;;;11.95;;
39540;SDS011;25219;52.244;21.006;2023-01-30T14:56:01;21.67;;;11.30;;
39540;SDS011;25219;52.244;21.006;2023-01-30T14:58:28;23.83;;;12.27;;
39540;SDS011;25219;52.244;21.006;2023-01-30T15:01:00;24.40;;;11.68;;
39540;SDS011;25219;52.244;21.006;2023-01-30T15:03:26;23.98;;;12.55;;
39540;SDS011;25219;52.244;21.006;2023-01-30T15:05:52;26.65;;;12.73;;
39540;SDS011;25219;52.244;21.006;2023-01-30T15:08:21;19.02;;;11.23;;
39540;SDS011;25219;52.244;21.006;2023-01-30T15:28:24;24.48;;;11.20;;
39540;SDS011;25219;52.244;21.006;2023-01-30T15:33:25;21.17;;;11.40;;
39540;SDS011;25219;52.244;21.006;2023-01-30T15:35:51;20.73;;;11.27;;
39540;SDS011;25219;52.244;21.006;2023-01-30T15:40:53;21.73;;;11.02;;
39540;SDS011;25219;52.244;21.006;2023-01-30T15:51:13;17.50;;;10.18;;
39540;SDS011;25219;52.244;21.006;2023-01-30T15:53:40;18.27;;;10.98;;
39540;SDS011;25219;52.244;21.006;2023-01-30T15:56:07;18.85;;;11.05;;
39540;SDS011;25219;52.244;21.006;2023-01-30T15:58:34;21.85;;;10.07;;
39540;SDS011;25219;52.244;21.006;2023-01-30T16:01:01;17.58;;;9.38;;
39540;SDS011;25219;52.244;21.006;2023-01-30T16:03:28;18.15;;;9.15;;
39540;SDS011;25219;52.244;21.006;2023-01-30T16:05:55;21.20;;;10.10;;
39540;SDS011;25219;52.244;21.006;2023-01-30T16:08:22;17.95;;;9.82;;
39540;SDS011;25219;52.244;21.006;2023-01-30T16:10:51;20.30;;;9.68;;
39540;SDS011;25219;52.244;21.006;2023-01-30T16:13:17;17.30;;;9.57;;
39540;SDS011;25219;52.244;21.006;2023-01-30T16:20:46;20.20;;;9.13;;
39540;SDS011;25219;52.244;21.006;2023-01-30T16:23:33;17.55;;;9.68;;
39540;SDS011;25219;52.244;21.006;2023-01-30T16:25:59;18.45;;;9.18;;
39540;SDS011;25219;52.244;21.006;2023-01-30T16:28:26;18.50;;;9.40;;
39540;SDS011;25219;52.244;21.006;2023-01-30T16:31:04;18.27;;;10.35;;
39540;SDS011;25219;52.244;21.006;2023-01-30T16:33:32;20.40;;;10.18;;
39540;SDS011;25219;52.244;21.006;2023-01-30T16:36:43;21.30;;;9.30;;
39540;SDS011;25219;52.244;21.006;2023-01-30T16:38:50;18.13;;;8.65;;
39540;SDS011;25219;52.244;21.006;2023-01-30T16:44:18;15.88;;;8.65;;
39540;SDS011;25219;52.244;21.006;2023-01-30T16:46:58;22.00;;;9.55;;
39540;SDS011;25219;52.244;21.006;2023-01-30T16:51:49;20.42;;;10.10;;
39540;SDS011;25219;52.244;21.006;2023-01-30T16:57:19;19.85;;;9.13;;
39540;SDS011;25219;52.244;21.006;2023-01-30T16:59:47;17.00;;;9.23;;
39540;SDS011;25219;52.244;21.006;2023-01-30T17:02:22;21.58;;;8.90;;
39540;SDS011;25219;52.244;21.006;2023-01-30T17:04:48;23.30;;;9.43;;
39540;SDS011;25219;52.244;21.006;2023-01-30T17:07:29;19.75;;;9.00;;
39540;SDS011;25219;52.244;21.006;2023-01-30T17:09:56;18.17;;;9.00;;
39540;SDS011;25219;52.244;21.006;2023-01-30T17:15:24;15.30;;;9.13;;
39540;SDS011;25219;52.244;21.006;2023-01-30T17:17:45;16.95;;;8.00;;
39540;SDS011;25219;52.244;21.006;2023-01-30T17:20:13;23.98;;;9.73;;
39540;SDS011;25219;52.244;21.006;2023-01-30T17:22:43;16.85;;;8.63;;
39540;SDS011;25219;52.244;21.006;2023-01-30T17:27:53;16.55;;;8.45;;
39540;SDS011;25219;52.244;21.006;2023-01-30T17:30:18;19.70;;;9.90;;
39540;SDS011;25219;52.244;21.006;2023-01-30T17:32:44;14.13;;;9.27;;
39540;SDS011;25219;52.244;21.006;2023-01-30T17:35:12;20.75;;;8.40;;
39540;SDS011;25219;52.244;21.006;2023-01-30T17:37:51;16.58;;;8.82;;
39540;SDS011;25219;52.244;21.006;2023-01-30T17:40:18;19.73;;;9.27;;
39540;SDS011;25219;52.244;21.006;2023-01-30T17:42:44;15.45;;;7.80;;
39540;SDS011;25219;52.244;21.006;2023-01-30T17:45:11;16.92;;;8.63;;
39540;SDS011;25219;52.244;21.006;2023-01-30T17:47:36;13.43;;;8.68;;
39540;SDS011;25219;52.244;21.006;2023-01-30T17:50:05;15.60;;;8.52;;
39540;SDS011;25219;52.244;21.006;2023-01-30T17:52:33;15.38;;;8.73;;
39540;SDS011;25219;52.244;21.006;2023-01-30T17:54:58;18.85;;;9.18;;
39540;SDS011;25219;52.244;21.006;2023-01-30T17:57:23;12.40;;;8.02;;
39540;SDS011;25219;52.244;21.006;2023-01-30T17:59:49;16.40;;;7.97;;
39540;SDS011;25219;52.244;21.006;2023-01-30T18:02:15;18.67;;;8.52;;
39540;SDS011;25219;52.244;21.006;2023-01-30T18:04:40;16.73;;;7.78;;
39540;SDS011;25219;52.244;21.006;2023-01-30T18:07:06;17.95;;;8.60;;
39540;SDS011;25219;52.244;21.006;2023-01-30T18:09:34;14.27;;;9.23;;
39540;SDS011;25219;52.244;21.006;2023-01-30T18:11:59;17.63;;;9.00;;
39540;SDS011;25219;52.244;21.006;2023-01-30T18:14:24;17.55;;;10.23;;